Time;durP1;ratioP1;P1;durP2;ratioP2;P2;SDS_P1;SDS_P2;PMS_P1;PMS_P2;Temp;Humidity;BMP_temperature;BMP_pressure;BME280_temperature;BME280_humidity;BME280_pressure;Samples;Min_cycle;Max_cycle;Signal;HPM_P1;HPM_P2
2023/11/01 00:00:43;;;;;;;4.82;1.02;;;8.60;99.90;;;;;;5015188;28;20634;-92
2023/11/01 00:03:09;;;;;;;4.85;0.90;;;8.60;99.90;;;;;;5006133;28;20175;-92
2023/11/01 00:05:34;;;;;;;3.30;0.88;;;8.60;99.90;;;;;;4998379;28;20180;-92
2023/11/01 00:08:00;;;;;;;2.92;0.95;;;8.60;99.90;;;;;;4997210;28;20198;-93
2023/11/01 00:10:26;;;;;;;4.95;1.02;;;8.60;99.90;;;;;;5005418;28;20250;-93
2023/11/01 00:12:51;;;;;;;3.42;1.10;;;8.60;99.90;;;;;;4996905;28;20234;-93
2023/11/01 00:15:17;;;;;;;2.08;1.05;;;8.60;99.90;;;;;;4997027;28;20202;-93
2023/11/01 00:17:44;;;;;;;6.40;1.38;;;8.50;99.90;;;;;;4997782;28;20191;-92
2023/11/01 00:20:10;;;;;;;3.72;0.80;;;8.50;99.90;;;;;;4997264;28;20179;-92
2023/11/01 00:22:36;;;;;;;2.80;0.90;;;8.50;99.90;;;;;;4997314;28;20191;-93
2023/11/01 00:25:01;;;;;;;5.35;1.33;;;8.40;99.90;;;;;;5006064;28;20176;-93
2023/11/01 00:27:32;;;;;;;3.97;1.17;;;8.40;99.90;;;;;;4997666;28;20278;-94
2023/11/01 00:30:00;;;;;;;5.43;1.10;;;8.50;99.90;;;;;;4994015;28;20175;-94
2023/11/01 00:32:26;;;;;;;4.32;1.00;;;8.40;99.90;;;;;;4999923;28;20300;-94
2023/11/01 00:34:52;;;;;;;4.00;0.95;;;8.50;99.90;;;;;;4996726;28;20690;-93
2023/11/01 00:37:17;;;;;;;2.72;0.90;;;8.40;99.90;;;;;;4996521;28;20230;-94
2023/11/01 00:39:43;;;;;;;3.70;0.77;;;8.40;99.90;;;;;;4996666;28;20188;-93
2023/11/01 00:42:09;;;;;;;4.13;1.08;;;8.40;99.90;;;;;;5004922;28;20274;-94
2023/11/01 00:44:35;;;;;;;1.40;0.80;;;8.50;99.90;;;;;;4997096;28;20188;-93
2023/11/01 00:47:01;;;;;;;1.48;0.80;;;8.50;99.90;;;;;;5003665;28;20212;-94
2023/11/01 00:49:32;;;;;;;3.03;1.20;;;8.50;99.90;;;;;;4996414;28;20271;-93
2023/11/01 00:51:57;;;;;;;5.28;1.10;;;8.50;99.90;;;;;;4988956;28;20191;-94
2023/11/01 00:54:23;;;;;;;3.15;0.90;;;8.50;99.90;;;;;;5003512;28;20573;-93
2023/11/01 00:56:49;;;;;;;2.10;1.00;;;8.50;99.90;;;;;;5005579;28;20179;-93
2023/11/01 00:59:16;;;;;;;2.85;1.20;;;8.50;99.90;;;;;;5004275;28;20180;-93
2023/11/01 01:01:42;;;;;;;2.33;1.08;;;8.50;99.90;;;;;;5004748;28;20187;-93
2023/11/01 01:04:08;;;;;;;5.43;1.00;;;8.50;99.90;;;;;;5004045;28;20199;-94
2023/11/01 01:06:33;;;;;;;1.60;0.73;;;8.50;99.90;;;;;;4988348;28;20295;-94
2023/11/01 01:09:00;;;;;;;8.43;1.20;;;8.50;99.90;;;;;;5003689;28;20207;-95
2023/11/01 01:11:26;;;;;;;2.72;1.10;;;8.50;99.90;;;;;;4996268;28;20188;-94
2023/11/01 01:13:51;;;;;;;2.83;1.05;;;8.40;99.90;;;;;;4995978;28;20203;-94
2023/11/01 01:16:17;;;;;;;1.45;0.90;;;8.40;99.90;;;;;;5004474;28;20188;-94
2023/11/01 01:18:45;;;;;;;1.42;1.15;;;8.40;99.90;;;;;;4997835;28;20277;-94
2023/11/01 01:21:10;;;;;;;3.75;0.90;;;8.40;99.90;;;;;;5002160;28;20681;-94
2023/11/01 01:23:36;;;;;;;6.10;1.27;;;8.40;99.90;;;;;;5004796;28;20175;-94
2023/11/01 01:26:02;;;;;;;6.72;1.60;;;8.40;99.90;;;;;;5451109;23;20246;-90
2023/11/01 01:28:28;;;;;;;2.85;1.10;;;8.50;99.90;;;;;;5017146;28;20193;-88
2023/11/01 01:30:53;;;;;;;5.18;1.08;;;8.50;99.90;;;;;;5015656;28;20539;-88
2023/11/01 01:33:19;;;;;;;4.38;1.00;;;8.50;99.90;;;;;;5024926;28;20222;-88
2023/11/01 01:35:45;;;;;;;2.38;1.08;;;8.50;99.90;;;;;;5015029;28;20191;-88
2023/11/01 01:38:11;;;;;;;3.28;1.33;;;8.50;99.90;;;;;;5015375;28;20183;-87
2023/11/01 01:40:36;;;;;;;3.22;1.42;;;8.50;99.90;;;;;;5016051;28;20285;-90
2023/11/01 01:43:19;;;;;;;1.55;1.13;;;8.50;99.90;;;;;;5021921;28;20191;-87
2023/11/01 01:45:47;;;;;;;7.03;1.35;;;8.60;99.90;;;;;;5022551;28;20240;-92
2023/11/01 01:48:13;;;;;;;11.10;1.52;;;8.60;99.90;;;;;;5020760;28;20194;-95
2023/11/01 01:50:39;;;;;;;3.63;1.48;;;8.60;99.90;;;;;;5016594;28;20618;-87
2023/11/01 01:53:05;;;;;;;4.45;1.30;;;8.60;99.90;;;;;;5016011;28;20215;-88
2023/11/01 01:55:31;;;;;;;4.70;1.40;;;8.60;99.90;;;;;;5024056;28;20194;-88
2023/11/01 01:57:58;;;;;;;3.50;1.35;;;8.70;99.90;;;;;;5019205;28;20201;-91
2023/11/01 02:00:28;;;;;;;4.78;1.50;;;8.70;99.90;;;;;;5029361;28;20284;-87
2023/11/01 02:02:54;;;;;;;4.40;1.55;;;8.70;99.90;;;;;;5014683;28;20194;-88
2023/11/01 02:05:20;;;;;;;3.72;1.30;;;8.70;99.90;;;;;;5031908;28;20198;-87
2023/11/01 02:07:47;;;;;;;2.95;1.73;;;8.70;99.90;;;;;;5017022;28;20223;-88
2023/11/01 02:10:14;;;;;;;2.78;1.60;;;8.80;99.90;;;;;;5016250;28;20198;-88
2023/11/01 02:12:43;;;;;;;2.67;1.60;;;8.80;99.90;;;;;;5023485;28;20210;-88
2023/11/01 02:15:09;;;;;;;4.07;1.70;;;8.70;99.90;;;;;;5020515;28;20189;-87
2023/11/01 02:17:34;;;;;;;5.97;1.48;;;8.70;99.90;;;;;;5017982;28;20210;-88
2023/11/01 02:20:02;;;;;;;2.95;1.65;;;8.80;99.90;;;;;;5022198;28;20617;-88
2023/11/01 02:22:28;;;;;;;2.05;1.38;;;8.80;99.90;;;;;;5007526;28;20203;-88
2023/11/01 02:24:54;;;;;;;3.35;1.52;;;8.80;99.90;;;;;;5022335;28;20187;-88
2023/11/01 02:27:20;;;;;;;4.18;1.95;;;8.80;99.90;;;;;;5014681;28;20245;-88
2023/11/01 02:29:46;;;;;;;5.43;1.85;;;8.80;99.90;;;;;;5014422;28;20524;-92
2023/11/01 02:32:11;;;;;;;2.28;1.73;;;8.80;99.90;;;;;;5022994;28;20191;-90
2023/11/01 02:34:37;;;;;;;2.90;1.75;;;8.90;99.90;;;;;;5013873;28;20222;-87
2023/11/01 02:37:03;;;;;;;4.35;2.15;;;8.90;99.90;;;;;;5013770;28;20274;-89
2023/11/01 02:39:29;;;;;;;3.85;2.17;;;8.90;99.90;;;;;;5014400;28;20526;-88
2023/11/01 02:41:55;;;;;;;7.32;2.10;;;8.90;99.90;;;;;;5021991;28;20186;-88
2023/11/01 02:44:21;;;;;;;3.25;2.20;;;8.90;99.90;;;;;;5015389;28;20587;-88
2023/11/01 02:46:46;;;;;;;3.00;2.38;;;9.00;99.90;;;;;;5014139;28;20218;-90
2023/11/01 02:49:12;;;;;;;5.00;2.90;;;9.00;99.90;;;;;;5013682;28;20214;-88
2023/11/01 02:51:38;;;;;;;4.95;2.60;;;9.00;99.90;;;;;;5014154;28;20214;-89
2023/11/01 02:54:03;;;;;;;6.05;2.60;;;9.00;99.90;;;;;;5022154;28;20183;-88
2023/11/01 02:56:30;;;;;;;4.00;2.88;;;9.00;99.90;;;;;;5016210;28;20249;-87
2023/11/01 02:58:57;;;;;;;11.60;3.75;;;9.00;99.90;;;;;;5021694;28;20183;-87
2023/11/01 03:01:23;;;;;;;7.72;3.00;;;9.00;99.90;;;;;;5023004;28;20209;-87
2023/11/01 03:03:49;;;;;;;8.95;3.25;;;9.10;99.90;;;;;;5009718;28;20227;-87
2023/11/01 03:06:16;;;;;;;5.53;3.25;;;9.10;99.90;;;;;;5017516;28;20215;-87
2023/11/01 03:08:45;;;;;;;3.78;3.10;;;9.10;99.90;;;;;;5026969;28;20217;-86
2023/11/01 03:11:10;;;;;;;5.43;2.92;;;9.10;99.90;;;;;;5023918;28;20183;-88
2023/11/01 03:13:36;;;;;;;4.20;2.88;;;9.10;99.90;;;;;;5020822;28;20286;-87
2023/11/01 03:16:02;;;;;;;5.30;3.20;;;9.10;99.90;;;;;;5018217;28;20191;-88
2023/11/01 03:18:27;;;;;;;4.40;2.85;;;9.10;99.90;;;;;;5018199;28;20187;-87
2023/11/01 03:20:53;;;;;;;4.13;2.97;;;9.20;99.90;;;;;;5018019;28;20641;-87
2023/11/01 03:23:19;;;;;;;3.90;3.08;;;9.10;99.90;;;;;;5024890;28;20218;-87
2023/11/01 03:25:44;;;;;;;5.68;3.00;;;9.10;99.90;;;;;;5019871;28;20191;-86
2023/11/01 03:28:10;;;;;;;4.20;3.22;;;9.10;99.90;;;;;;5026223;28;20209;-88
2023/11/01 03:30:36;;;;;;;3.92;3.10;;;9.10;99.90;;;;;;5017760;28;20246;-87
2023/11/01 03:33:02;;;;;;;5.07;2.72;;;9.10;99.90;;;;;;5013821;28;20207;-88
2023/11/01 03:35:27;;;;;;;3.58;2.90;;;9.10;99.90;;;;;;5016877;28;20653;-89
2023/11/01 03:37:53;;;;;;;3.80;2.97;;;9.00;99.90;;;;;;5025859;28;20241;-88
2023/11/01 03:40:20;;;;;;;5.30;2.95;;;9.00;99.90;;;;;;5017960;28;20191;-88
2023/11/01 03:42:45;;;;;;;3.45;2.83;;;9.00;99.90;;;;;;5025586;28;20222;-87
2023/11/01 03:45:11;;;;;;;6.30;2.67;;;9.00;99.90;;;;;;5022765;28;20226;-88
2023/11/01 03:47:37;;;;;;;3.58;2.80;;;8.90;99.90;;;;;;5021302;28;20277;-87
2023/11/01 03:50:03;;;;;;;5.15;2.45;;;8.90;99.90;;;;;;5024651;28;20270;-88
2023/11/01 03:52:28;;;;;;;4.82;2.78;;;8.90;99.90;;;;;;5017458;28;20222;-88
2023/11/01 03:54:54;;;;;;;7.00;2.83;;;8.90;99.90;;;;;;5017377;28;20533;-87
2023/11/01 03:57:19;;;;;;;4.03;2.70;;;8.90;99.90;;;;;;5023766;28;20282;-88
2023/11/01 03:59:45;;;;;;;3.80;2.63;;;8.90;99.90;;;;;;5019464;28;20263;-88
2023/11/01 04:02:11;;;;;;;5.05;2.80;;;8.90;99.90;;;;;;5017896;28;20190;-90
2023/11/01 04:04:37;;;;;;;3.55;2.70;;;8.90;99.90;;;;;;5018103;28;20209;-92
2023/11/01 04:07:02;;;;;;;3.20;2.67;;;8.90;99.90;;;;;;5016912;28;20218;-89
2023/11/01 04:09:28;;;;;;;4.10;2.38;;;8.90;99.90;;;;;;5025562;28;20195;-89
2023/11/01 04:11:54;;;;;;;4.15;2.63;;;8.80;99.90;;;;;;5020014;28;20186;-88
2023/11/01 04:14:20;;;;;;;3.90;3.03;;;8.80;99.90;;;;;;5024975;28;20179;-87
2023/11/01 04:16:46;;;;;;;6.35;2.90;;;8.90;99.90;;;;;;5017461;28;20183;-87
2023/11/01 04:19:12;;;;;;;2.78;2.38;;;8.80;99.90;;;;;;5016925;28;20538;-87
2023/11/01 04:21:38;;;;;;;4.32;2.72;;;8.80;99.90;;;;;;5023969;28;20226;-90
2023/11/01 04:24:04;;;;;;;4.05;2.83;;;8.80;99.90;;;;;;5027239;28;20187;-89
2023/11/01 04:26:31;;;;;;;5.78;2.53;;;8.90;99.90;;;;;;5026564;28;20245;-85
2023/11/01 04:28:56;;;;;;;5.43;2.85;;;8.80;99.90;;;;;;5025605;28;20633;-89
2023/11/01 04:31:24;;;;;;;3.83;2.88;;;8.90;99.90;;;;;;5018669;28;20186;-87
2023/11/01 04:33:53;;;;;;;5.28;3.13;;;8.90;99.90;;;;;;5035467;28;20598;-90
2023/11/01 04:36:25;;;;;;;4.53;2.95;;;8.90;99.90;;;;;;5020386;28;20705;-86
2023/11/01 04:38:53;;;;;;;5.00;3.03;;;9.00;99.90;;;;;;5029711;28;20190;-89
2023/11/01 04:41:20;;;;;;;3.95;3.05;;;9.00;99.90;;;;;;5010596;28;20198;-88
2023/11/01 04:43:47;;;;;;;8.25;3.10;;;9.00;99.90;;;;;;5015830;28;20205;-86
2023/11/01 04:46:14;;;;;;;6.70;2.75;;;9.10;99.90;;;;;;5015466;28;20238;-87
2023/11/01 04:48:39;;;;;;;4.13;3.20;;;9.10;99.90;;;;;;5015374;28;20199;-85
2023/11/01 04:51:05;;;;;;;4.93;2.83;;;9.10;99.90;;;;;;5015444;28;20194;-85
2023/11/01 04:53:31;;;;;;;4.88;3.15;;;9.10;99.90;;;;;;5015532;28;20270;-85
2023/11/01 04:55:56;;;;;;;3.58;3.10;;;9.20;99.90;;;;;;5016327;28;20190;-94
2023/11/01 04:58:22;;;;;;;5.60;3.47;;;9.20;99.90;;;;;;5015185;28;20208;-86
2023/11/01 05:00:49;;;;;;;6.28;2.97;;;9.20;99.90;;;;;;5015500;28;20191;-90
2023/11/01 05:03:16;;;;;;;6.93;3.00;;;9.20;99.90;;;;;;5015638;28;20187;-87
2023/11/01 05:05:42;;;;;;;5.82;3.00;;;9.20;99.90;;;;;;5017585;28;20609;-95
2023/11/01 05:08:08;;;;;;;7.18;2.83;;;9.30;99.90;;;;;;5021592;28;20248;-93
2023/11/01 05:10:33;;;;;;;4.15;2.92;;;9.30;99.90;;;;;;5019584;28;20183;-88
2023/11/01 05:12:59;;;;;;;5.25;2.53;;;9.30;99.90;;;;;;5016630;28;20648;-95
2023/11/01 05:15:24;;;;;;;3.35;2.65;;;9.30;99.90;;;;;;5032412;28;20237;-92
2023/11/01 05:17:51;;;;;;;5.97;2.70;;;9.40;99.90;;;;;;5017173;28;20195;-93
2023/11/01 05:20:16;;;;;;;5.72;2.63;;;9.40;99.90;;;;;;5014683;28;20183;-92
2023/11/01 05:22:42;;;;;;;5.97;2.70;;;9.40;99.90;;;;;;5020958;28;20193;-92
2023/11/01 05:25:17;;;;;;;7.70;2.58;;;9.40;99.90;;;;;;5017834;28;20257;-91
2023/11/01 05:27:43;;;;;;;5.10;2.42;;;9.50;99.90;;;;;;5017916;28;20242;-92
2023/11/01 05:30:16;;;;;;;5.60;2.58;;;9.50;99.90;;;;;;5023540;28;20250;-86
2023/11/01 05:32:45;;;;;;;3.05;2.47;;;9.50;99.90;;;;;;5015186;28;20195;-86
2023/11/01 05:35:12;;;;;;;6.25;2.60;;;9.60;99.90;;;;;;5014497;28;20179;-85
2023/11/01 05:37:39;;;;;;;5.10;2.30;;;9.60;99.90;;;;;;5011979;28;20184;-87
2023/11/01 05:40:13;;;;;;;3.55;2.40;;;9.60;99.90;;;;;;5025603;28;20213;-93
2023/11/01 05:42:40;;;;;;;3.50;2.40;;;9.60;99.90;;;;;;5012134;28;20226;-85
2023/11/01 05:45:07;;;;;;;8.70;2.28;;;9.60;99.90;;;;;;5013150;28;20214;-85
2023/11/01 05:47:32;;;;;;;2.45;2.20;;;9.70;99.90;;;;;;5030436;28;20305;-86
2023/11/01 05:49:58;;;;;;;4.10;2.22;;;9.60;99.90;;;;;;5010565;28;20648;-86
2023/11/01 05:52:26;;;;;;;3.60;2.42;;;9.60;99.90;;;;;;5020342;28;20187;-91
2023/11/01 05:54:52;;;;;;;4.30;2.13;;;9.60;99.90;;;;;;5015163;28;20586;-85
2023/11/01 05:57:17;;;;;;;3.80;2.55;;;9.70;99.90;;;;;;5013610;28;20191;-89
2023/11/01 05:59:43;;;;;;;2.65;2.05;;;9.70;99.90;;;;;;5013745;28;20274;-85
2023/11/01 06:02:09;;;;;;;2.88;2.00;;;9.60;99.90;;;;;;5026636;28;20278;-86
2023/11/01 06:04:34;;;;;;;3.17;1.92;;;9.70;99.90;;;;;;5019517;28;20186;-88
2023/11/01 06:07:02;;;;;;;3.10;2.22;;;9.60;99.90;;;;;;5015077;28;20215;-89
2023/11/01 06:09:28;;;;;;;3.17;1.90;;;9.70;99.90;;;;;;5021717;28;20218;-84
2023/11/01 06:11:57;;;;;;;4.72;1.83;;;9.70;99.90;;;;;;5006962;28;20213;-81
2023/11/01 06:14:23;;;;;;;6.30;2.17;;;9.70;99.90;;;;;;5028942;28;20195;-84
2023/11/01 06:16:49;;;;;;;2.67;2.00;;;9.70;99.90;;;;;;5014737;28;20187;-84
2023/11/01 06:19:15;;;;;;;2.92;2.03;;;9.70;99.90;;;;;;5021901;28;20198;-91
2023/11/01 06:21:40;;;;;;;4.63;2.08;;;9.70;99.90;;;;;;5013807;28;20190;-88
2023/11/01 06:24:06;;;;;;;5.20;1.80;;;9.70;99.90;;;;;;5013533;28;20244;-85
2023/11/01 06:26:34;;;;;;;3.33;2.30;;;9.80;99.90;;;;;;5013096;28;20267;-83
2023/11/01 06:29:00;;;;;;;3.38;1.50;;;9.70;99.90;;;;;;5013523;28;20195;-88
2023/11/01 06:31:25;;;;;;;4.45;2.10;;;9.80;99.90;;;;;;5021611;28;20190;-88
2023/11/01 06:33:51;;;;;;;5.15;2.08;;;9.80;99.90;;;;;;5013482;28;20193;-83
2023/11/01 06:36:17;;;;;;;1.95;1.50;;;9.80;99.90;;;;;;5013059;28;20642;-84
2023/11/01 06:38:43;;;;;;;4.47;1.80;;;9.80;99.90;;;;;;5014912;28;20187;-84
2023/11/01 06:41:09;;;;;;;3.38;1.52;;;9.80;99.90;;;;;;5023047;28;20254;-84
2023/11/01 06:43:35;;;;;;;4.15;1.63;;;9.90;99.90;;;;;;5010132;28;20294;-83
2023/11/01 06:46:00;;;;;;;2.97;1.85;;;9.90;99.90;;;;;;5013289;28;20186;-84
2023/11/01 06:48:26;;;;;;;6.55;1.98;;;9.90;99.90;;;;;;5013535;28;20277;-84
2023/11/01 06:50:52;;;;;;;4.18;2.17;;;9.90;99.90;;;;;;5015999;28;20179;-84
2023/11/01 06:53:17;;;;;;;5.47;2.00;;;9.90;99.90;;;;;;5019832;28;20206;-83
2023/11/01 06:55:43;;;;;;;4.05;2.10;;;9.90;99.90;;;;;;5029951;28;20194;-84
2023/11/01 06:58:09;;;;;;;3.22;2.08;;;9.90;99.90;;;;;;5015191;28;20190;-83
2023/11/01 07:00:34;;;;;;;3.28;1.80;;;9.90;99.90;;;;;;5016449;28;20190;-84
2023/11/01 07:03:00;;;;;;;2.90;1.92;;;10.00;99.90;;;;;;5021284;28;20629;-86
2023/11/01 07:05:26;;;;;;;3.72;1.83;;;10.00;99.90;;;;;;5029785;28;20194;-85
2023/11/01 07:07:52;;;;;;;4.68;1.73;;;10.00;99.90;;;;;;5013190;28;20665;-83
2023/11/01 07:10:18;;;;;;;6.03;2.20;;;10.10;99.90;;;;;;5013299;28;20562;-84
2023/11/01 07:12:44;;;;;;;2.17;1.70;;;10.10;99.90;;;;;;5012884;28;20194;-84
2023/11/01 07:15:10;;;;;;;3.45;1.95;;;10.10;99.90;;;;;;5013418;28;20187;-84
2023/11/01 07:17:36;;;;;;;3.75;1.98;;;10.00;99.90;;;;;;5013142;28;20187;-84
2023/11/01 07:20:02;;;;;;;4.85;2.03;;;10.10;99.90;;;;;;5013419;28;20198;-84
2023/11/01 07:22:28;;;;;;;6.30;2.10;;;10.10;99.90;;;;;;5013169;28;20183;-83
2023/11/01 07:24:55;;;;;;;5.30;2.08;;;10.10;99.90;;;;;;5021114;28;20195;-82
2023/11/01 07:27:20;;;;;;;3.45;2.10;;;10.10;99.90;;;;;;5012397;28;20322;-82
2023/11/01 07:29:46;;;;;;;6.57;2.10;;;10.20;99.90;;;;;;5013100;28;20274;-83
2023/11/01 07:32:12;;;;;;;5.00;1.92;;;10.20;99.90;;;;;;5018487;28;20213;-83
2023/11/01 07:34:38;;;;;;;5.47;2.22;;;10.20;99.90;;;;;;5015488;28;20210;-83
2023/11/01 07:37:04;;;;;;;4.75;2.28;;;10.20;99.90;;;;;;5013415;28;20233;-84
2023/11/01 07:39:29;;;;;;;5.10;2.17;;;10.30;99.90;;;;;;5013195;28;20199;-83
2023/11/01 07:41:55;;;;;;;5.82;1.80;;;10.30;99.90;;;;;;5016042;28;20186;-84
2023/11/01 07:44:21;;;;;;;3.75;1.90;;;10.30;99.90;;;;;;5013374;28;20187;-84
2023/11/01 07:46:46;;;;;;;3.00;1.98;;;10.40;99.90;;;;;;5016273;28;20260;-83
2023/11/01 07:49:12;;;;;;;3.85;2.00;;;10.40;99.90;;;;;;5016369;28;20740;-83
2023/11/01 07:51:39;;;;;;;5.05;2.00;;;10.40;99.90;;;;;;5016215;28;20187;-83
2023/11/01 07:54:05;;;;;;;6.82;2.05;;;10.40;99.90;;;;;;5024463;28;20195;-83
2023/11/01 07:56:31;;;;;;;6.75;2.22;;;10.50;99.90;;;;;;5028877;28;20628;-82
2023/11/01 07:58:58;;;;;;;3.42;2.03;;;10.50;99.90;;;;;;5015826;28;20191;-84
2023/11/01 08:01:23;;;;;;;4.55;1.90;;;10.60;99.90;;;;;;5016513;28;20233;-84
2023/11/01 08:03:50;;;;;;;7.50;2.30;;;10.60;99.90;;;;;;5017405;28;20191;-85
2023/11/01 08:06:15;;;;;;;3.08;1.75;;;10.70;99.90;;;;;;5016147;28;20211;-84
2023/11/01 08:08:41;;;;;;;5.07;1.92;;;10.80;99.90;;;;;;5024236;28;20281;-85
2023/11/01 08:11:07;;;;;;;5.25;1.80;;;10.80;99.90;;;;;;5028971;28;20273;-85
2023/11/01 08:13:33;;;;;;;6.82;1.70;;;10.80;99.90;;;;;;5019242;28;20206;-85
2023/11/01 08:15:59;;;;;;;4.88;1.33;;;10.90;99.90;;;;;;5008617;28;20261;-84
2023/11/01 08:18:25;;;;;;;5.20;1.60;;;10.90;99.90;;;;;;5032124;28;20187;-85
2023/11/01 08:20:53;;;;;;;4.93;1.35;;;11.00;99.90;;;;;;5015763;28;20278;-86
2023/11/01 08:23:19;;;;;;;5.07;1.52;;;11.00;99.90;;;;;;5015974;28;20194;-84
2023/11/01 08:25:44;;;;;;;4.20;1.40;;;11.00;99.90;;;;;;5013263;28;20179;-85
2023/11/01 08:28:10;;;;;;;4.80;1.50;;;11.00;99.90;;;;;;5023550;28;20707;-85
2023/11/01 08:30:36;;;;;;;2.60;1.10;;;11.10;99.90;;;;;;5015786;28;20229;-84
2023/11/01 08:33:01;;;;;;;4.40;1.42;;;11.10;99.90;;;;;;5034969;28;20183;-85
2023/11/01 08:35:27;;;;;;;3.47;1.38;;;11.20;99.90;;;;;;5019580;28;20240;-85
2023/11/01 08:37:52;;;;;;;6.88;1.60;;;11.30;99.90;;;;;;5015490;28;20294;-85
2023/11/01 08:40:18;;;;;;;3.28;1.27;;;11.30;99.90;;;;;;5017786;28;20528;-86
2023/11/01 08:42:44;;;;;;;3.67;1.50;;;11.40;99.90;;;;;;5013418;28;20629;-85
2023/11/01 08:45:10;;;;;;;4.35;1.63;;;11.50;99.90;;;;;;5019080;28;20227;-86
2023/11/01 08:47:41;;;;;;;3.28;1.17;;;11.50;99.90;;;;;;5012097;28;20226;-87
2023/11/01 08:50:18;;;;;;;4.18;1.20;;;11.60;99.90;;;;;;5015638;28;20536;-86
2023/11/01 08:52:44;;;;;;;1.55;1.00;;;11.60;99.90;;;;;;5017354;28;20191;-86
2023/11/01 08:55:14;;;;;;;3.97;1.00;;;11.70;99.90;;;;;;5013975;28;20258;-84
2023/11/01 08:57:40;;;;;;;4.65;1.27;;;11.70;99.90;;;;;;5014957;28;20194;-85
2023/11/01 09:00:08;;;;;;;2.78;1.27;;;11.70;99.90;;;;;;5016711;28;20176;-86
2023/11/01 09:02:34;;;;;;;6.53;1.10;;;11.70;99.90;;;;;;5015201;28;20187;-85
2023/11/01 09:05:00;;;;;;;3.88;1.33;;;11.80;99.90;;;;;;5015399;28;20191;-86
2023/11/01 09:07:26;;;;;;;5.97;1.35;;;11.80;99.90;;;;;;5016101;28;20597;-86
2023/11/01 09:09:53;;;;;;;5.97;1.02;;;11.80;99.90;;;;;;5034055;28;20186;-86
2023/11/01 09:12:19;;;;;;;3.70;1.00;;;11.80;99.90;;;;;;5028509;28;20661;-85
2023/11/01 09:14:46;;;;;;;5.70;1.00;;;11.80;99.90;;;;;;5021312;28;20193;-85
2023/11/01 09:17:13;;;;;;;2.88;0.90;;;11.80;99.90;;;;;;5008511;28;20241;-86
2023/11/01 09:19:40;;;;;;;7.10;1.00;;;11.90;99.90;;;;;;5031323;28;20187;-86
2023/11/01 09:22:06;;;;;;;4.35;0.90;;;11.90;99.90;;;;;;5023017;28;20630;-86
2023/11/01 09:24:32;;;;;;;4.85;1.00;;;11.80;99.90;;;;;;5014886;28;20197;-86
2023/11/01 09:26:57;;;;;;;2.55;0.90;;;11.80;99.90;;;;;;5014386;28;20330;-85
2023/11/01 09:29:23;;;;;;;2.42;0.95;;;11.90;99.90;;;;;;5014514;28;20534;-87
2023/11/01 09:31:49;;;;;;;4.13;0.88;;;11.80;99.90;;;;;;5016779;28;20249;-86
2023/11/01 09:34:14;;;;;;;2.88;0.93;;;11.80;99.90;;;;;;5034393;28;20213;-85
2023/11/01 09:36:43;;;;;;;2.92;0.95;;;11.80;99.90;;;;;;5017512;28;20187;-87
2023/11/01 09:39:09;;;;;;;4.10;0.90;;;11.80;99.90;;;;;;5021666;28;20194;-87
2023/11/01 09:41:52;;;;;;;4.32;0.98;;;11.90;99.90;;;;;;5014894;28;20202;-85
2023/11/01 09:44:18;;;;;;;4.68;1.17;;;11.80;99.90;;;;;;5029897;28;20191;-84
2023/11/01 13:15:19;;;;;;;6.25;1.30;;;13.60;99.90;;;;;;5099414;24;20234;-86
2023/11/01 13:17:47;;;;;;;5.18;1.38;;;13.70;99.90;;;;;;4844714;29;20189;-87
2023/11/01 13:20:13;;;;;;;5.80;1.38;;;13.70;99.90;;;;;;4844828;29;20210;-87
2023/11/01 13:22:38;;;;;;;4.70;1.38;;;13.70;99.90;;;;;;4828596;29;20643;-86
2023/11/01 13:25:06;;;;;;;8.05;1.50;;;13.70;99.90;;;;;;4844586;29;20264;-87
2023/11/01 13:27:31;;;;;;;7.63;1.40;;;13.70;99.90;;;;;;4828138;29;20216;-87
2023/11/01 13:29:57;;;;;;;9.65;1.55;;;13.70;99.90;;;;;;4843689;29;20229;-88
2023/11/01 13:32:23;;;;;;;4.68;1.15;;;13.70;99.90;;;;;;4827708;29;20249;-85
2023/11/01 13:34:48;;;;;;;6.95;1.35;;;13.70;99.90;;;;;;4844614;29;20189;-87
2023/11/01 13:37:15;;;;;;;4.35;1.40;;;13.70;99.90;;;;;;4822980;29;20201;-88
2023/11/01 13:39:41;;;;;;;3.97;0.98;;;13.70;99.90;;;;;;4841666;29;20232;-88
2023/11/01 13:42:07;;;;;;;4.18;1.45;;;13.70;99.90;;;;;;4828173;29;20283;-86
2023/11/01 13:44:32;;;;;;;7.70;2.30;;;13.60;99.90;;;;;;4827559;29;20181;-88
2023/11/01 13:46:58;;;;;;;5.70;1.30;;;13.60;99.90;;;;;;4844437;29;20224;-87
2023/11/01 13:49:24;;;;;;;5.38;1.30;;;13.60;99.90;;;;;;4844581;29;20567;-87
2023/11/01 13:51:50;;;;;;;3.20;1.08;;;13.60;99.90;;;;;;4844467;29;20189;-88
2023/11/01 13:54:16;;;;;;;6.28;1.75;;;13.60;99.90;;;;;;4828142;29;20189;-87
2023/11/01 13:56:41;;;;;;;3.33;1.30;;;13.60;99.90;;;;;;4827448;29;20195;-88
2023/11/01 13:59:07;;;;;;;3.75;1.00;;;13.70;99.90;;;;;;4843963;29;20257;-88
2023/11/01 14:01:33;;;;;;;6.63;1.25;;;13.70;99.90;;;;;;4844334;29;20205;-89
2023/11/01 14:03:59;;;;;;;3.58;1.10;;;13.70;99.90;;;;;;4827935;29;20284;-88
2023/11/01 14:06:26;;;;;;;4.88;1.00;;;13.80;99.90;;;;;;4828101;29;20193;-88
2023/11/01 14:08:53;;;;;;;2.95;1.00;;;13.80;99.90;;;;;;4827603;29;20204;-88
2023/11/01 14:11:22;;;;;;;4.97;1.60;;;13.80;99.90;;;;;;4827803;29;20189;-88
2023/11/01 14:13:48;;;;;;;7.32;1.45;;;13.80;99.90;;;;;;4827004;29;20204;-88
2023/11/01 14:16:14;;;;;;;11.80;1.50;;;13.80;99.90;;;;;;4827742;29;20194;-87
2023/11/01 14:18:40;;;;;;;2.65;1.00;;;13.80;99.90;;;;;;4826929;29;20216;-89
2023/11/01 14:21:10;;;;;;;5.68;1.42;;;13.90;99.90;;;;;;4827542;29;20227;-87
2023/11/01 14:23:39;;;;;;;6.88;1.27;;;13.80;99.90;;;;;;4826640;29;20260;-87
2023/11/01 14:26:08;;;;;;;4.90;1.10;;;13.90;99.90;;;;;;4827164;29;20189;-89
2023/11/01 14:28:34;;;;;;;3.95;1.00;;;13.80;99.90;;;;;;4827308;29;20200;-87
2023/11/01 14:31:00;;;;;;;5.00;1.38;;;13.80;99.90;;;;;;4827642;29;20417;-87
2023/11/01 14:33:26;;;;;;;9.82;1.50;;;13.80;99.90;;;;;;4843087;29;20214;-87
2023/11/01 14:35:52;;;;;;;5.82;1.38;;;13.80;99.90;;;;;;4827042;29;20189;-86
2023/11/01 14:38:19;;;;;;;4.50;1.33;;;13.70;99.90;;;;;;4843464;29;20182;-86
2023/11/01 14:40:45;;;;;;;4.95;1.08;;;13.70;99.90;;;;;;4826946;29;20191;-87
2023/11/01 14:43:11;;;;;;;4.03;1.40;;;13.70;99.90;;;;;;4826313;29;20271;-85
2023/11/01 14:45:41;;;;;;;4.80;1.10;;;13.70;99.90;;;;;;4843145;29;20181;-86
2023/11/01 14:48:07;;;;;;;5.18;1.00;;;13.70;99.90;;;;;;4826777;29;20223;-87
2023/11/01 14:50:34;;;;;;;5.28;1.45;;;13.60;99.90;;;;;;4827322;29;20189;-87
2023/11/01 14:53:00;;;;;;;6.55;1.20;;;13.60;99.90;;;;;;4830062;29;20208;-86
2023/11/01 14:55:26;;;;;;;5.85;1.20;;;13.40;99.90;;;;;;4847216;29;20268;-88
2023/11/01 14:57:53;;;;;;;7.53;0.90;;;13.40;99.90;;;;;;4847133;29;20696;-87
2023/11/01 15:00:19;;;;;;;6.38;1.60;;;13.30;99.90;;;;;;4830708;29;20189;-87
2023/11/01 15:02:46;;;;;;;3.90;1.00;;;13.20;99.90;;;;;;4830359;29;20192;-87
2023/11/01 15:05:12;;;;;;;3.83;1.10;;;13.20;99.90;;;;;;4830502;29;20185;-86
2023/11/01 15:07:38;;;;;;;4.00;1.20;;;13.10;99.90;;;;;;4846668;29;20690;-87
2023/11/01 15:10:04;;;;;;;4.25;1.20;;;13.10;99.90;;;;;;4847019;29;20173;-87
2023/11/01 15:12:30;;;;;;;2.92;1.00;;;13.10;99.90;;;;;;4847181;29;20245;-87
2023/11/01 15:14:56;;;;;;;4.05;1.40;;;13.10;99.90;;;;;;4846468;29;20315;-87
2023/11/01 15:17:22;;;;;;;5.90;1.38;;;13.00;99.90;;;;;;4846736;29;20628;-87
2023/11/01 15:19:48;;;;;;;8.75;1.42;;;12.90;99.90;;;;;;4846619;29;20196;-87
2023/11/01 15:22:15;;;;;;;5.93;1.05;;;12.90;99.90;;;;;;4846467;29;20185;-87
2023/11/01 15:24:51;;;;;;;5.10;0.95;;;12.90;99.90;;;;;;4846481;29;20185;-86
2023/11/01 15:27:18;;;;;;;4.43;1.00;;;12.80;99.90;;;;;;4828489;29;20216;-87
2023/11/01 15:29:45;;;;;;;3.47;1.00;;;12.80;99.90;;;;;;4844980;29;20512;-86
2023/11/01 15:32:11;;;;;;;7.13;1.40;;;12.80;99.90;;;;;;4828834;29;20296;-87
2023/11/01 15:34:37;;;;;;;4.97;1.20;;;12.70;99.90;;;;;;4845497;29;20182;-84
2023/11/01 15:37:03;;;;;;;5.65;1.17;;;12.70;99.90;;;;;;4830372;29;20197;-86
2023/11/01 15:39:29;;;;;;;3.45;1.30;;;12.60;99.90;;;;;;4830518;29;20233;-85
2023/11/01 15:41:55;;;;;;;4.80;1.02;;;12.60;99.90;;;;;;4822712;29;20198;-87
2023/11/01 15:44:20;;;;;;;4.03;1.27;;;12.60;99.90;;;;;;4829935;29;20191;-86
2023/11/01 15:46:50;;;;;;;5.18;1.17;;;12.50;99.90;;;;;;4845280;29;20209;-87
2023/11/01 15:49:16;;;;;;;5.53;1.33;;;12.50;99.90;;;;;;4829702;29;20275;-86
2023/11/01 15:51:41;;;;;;;5.43;1.58;;;12.50;99.90;;;;;;4829694;29;20193;-87
2023/11/01 15:54:07;;;;;;;8.77;1.20;;;12.50;99.90;;;;;;4846189;29;20204;-86
2023/11/01 15:56:37;;;;;;;6.88;1.65;;;12.50;99.90;;;;;;4829781;29;20231;-86
2023/11/01 15:59:05;;;;;;;8.63;1.50;;;12.40;99.90;;;;;;4829471;29;20209;-87
2023/11/01 16:01:31;;;;;;;5.75;1.23;;;12.40;99.90;;;;;;4845481;29;20184;-86
2023/11/01 16:03:57;;;;;;;7.65;1.33;;;12.50;99.90;;;;;;4822075;29;20189;-86
2023/11/01 16:06:23;;;;;;;6.63;1.50;;;12.50;99.90;;;;;;4838326;29;20193;-85
2023/11/01 16:08:48;;;;;;;5.15;1.40;;;12.50;99.90;;;;;;4824912;29;20700;-85
2023/11/01 16:11:14;;;;;;;4.70;1.48;;;12.40;99.90;;;;;;4828239;29;20188;-87
2023/11/01 16:13:41;;;;;;;2.03;1.10;;;12.50;99.90;;;;;;4845566;29;20193;-86
2023/11/01 16:16:07;;;;;;;4.07;1.17;;;12.40;99.90;;;;;;4845488;29;20245;-87